createdAt,value
2023-03-11T00:00:09.603Z,52.60
2023-03-11T00:04:09.565Z,51.16
2023-03-11T00:08:09.634Z,53.92
2023-03-11T00:12:09.662Z,53.00
2023-03-11T00:16:09.707Z,47.72
2023-03-11T00:20:09.625Z,37.49
2023-03-11T00:24:09.639Z,43.42
2023-03-11T00:28:09.640Z,50.48
2023-03-11T00:32:09.612Z,57.17
2023-03-11T00:36:09.633Z,58.93
2023-03-11T00:40:09.581Z,63.81
2023-03-11T00:44:09.551Z,63.72
2023-03-11T00:48:09.515Z,73.52
2023-03-11T00:52:09.519Z,76.56
2023-03-11T00:56:09.499Z,78.92
2023-03-11T01:00:09.475Z,82.69
2023-03-11T01:04:09.534Z,85.93
2023-03-11T01:08:09.463Z,80.41
2023-03-11T01:12:09.514Z,78.32
2023-03-11T01:16:09.631Z,84.16
2023-03-11T01:20:09.533Z,83.97
2023-03-11T01:24:09.521Z,86.11
2023-03-11T01:28:09.539Z,90.37
2023-03-11T01:32:09.497Z,88.35
2023-03-11T01:36:09.506Z,86.80
2023-03-11T01:40:09.459Z,79.23
2023-03-11T01:44:09.465Z,80.86
2023-03-11T01:48:09.404Z,77.27
2023-03-11T01:52:09.418Z,80.16
2023-03-11T01:56:09.370Z,75.20
2023-03-11T02:00:09.377Z,79.46
2023-03-11T02:04:09.377Z,77.18
2023-03-11T02:08:09.380Z,79.45
2023-03-11T02:12:09.338Z,82.20
2023-03-11T02:16:09.435Z,84.56
2023-03-11T02:20:09.303Z,87.60
2023-03-11T02:24:09.312Z,90.01
2023-03-11T02:28:09.294Z,90.07
2023-03-11T02:32:09.891Z,84.51
2023-03-11T02:36:09.270Z,88.58
2023-03-11T02:40:09.264Z,91.00
2023-03-11T02:44:09.259Z,90.75
2023-03-11T02:48:09.214Z,91.83
2023-03-11T02:52:09.199Z,93.73
2023-03-11T02:56:09.187Z,94.36
2023-03-11T03:00:09.188Z,93.15
2023-03-11T03:04:09.224Z,96.80
2023-03-11T03:08:09.159Z,97.20
2023-03-11T03:12:09.134Z,96.25
2023-03-11T03:16:09.175Z,97.01
2023-03-11T03:20:09.108Z,98.61
2023-03-11T03:24:09.076Z,99.56
2023-03-11T03:28:09.107Z,97.80
2023-03-11T03:32:09.215Z,96.15
2023-03-11T03:36:09.127Z,94.81
2023-03-11T03:40:09.068Z,98.21
2023-03-11T03:44:09.057Z,98.10
2023-03-11T03:48:09.027Z,98.85
2023-03-11T03:52:09.030Z,98.54
2023-03-11T03:56:09.030Z,97.61
2023-03-11T04:00:09.098Z,95.49
2023-03-11T04:04:09.016Z,95.61
2023-03-11T04:08:08.973Z,90.95
2023-03-11T04:12:08.978Z,92.22
2023-03-11T04:16:08.981Z,91.52
2023-03-11T04:20:08.938Z,95.92
2023-03-11T04:24:08.947Z,93.19
2023-03-11T04:28:08.901Z,95.19
2023-03-11T04:32:08.918Z,91.35
2023-03-11T04:36:08.987Z,94.37
2023-03-11T04:40:09.065Z,93.29
2023-03-11T04:44:09.012Z,94.85
2023-03-11T04:48:09.012Z,95.00
2023-03-11T04:52:08.963Z,94.38
2023-03-11T04:56:08.952Z,89.25
2023-03-11T05:00:08.947Z,87.45
2023-03-11T05:04:09.061Z,90.85
2023-03-11T05:08:08.936Z,91.86
2023-03-11T05:12:08.938Z,87.26
2023-03-11T05:16:09.057Z,87.87
2023-03-11T05:20:08.931Z,92.47
2023-03-11T05:24:08.928Z,89.47
2023-03-11T05:28:08.942Z,90.65
2023-03-11T05:32:08.945Z,89.31
2023-03-11T05:36:08.907Z,86.49
2023-03-11T05:40:08.918Z,87.26
2023-03-11T05:44:08.914Z,84.62
2023-03-11T05:48:08.881Z,83.11
2023-03-11T05:52:08.862Z,83.88
2023-03-11T05:56:08.891Z,82.61
2023-03-11T06:00:08.865Z,79.59
2023-03-11T06:04:09.011Z,83.87
2023-03-11T06:08:08.884Z,80.94
2023-03-11T06:12:08.874Z,80.24
2023-03-11T06:16:08.909Z,76.17
2023-03-11T06:20:08.864Z,77.86
2023-03-11T06:24:08.917Z,77.19
2023-03-11T06:28:08.845Z,80.26
2023-03-11T06:32:08.878Z,79.04
2023-03-11T06:36:08.861Z,73.31
2023-03-11T06:40:08.792Z,77.36
2023-03-11T06:44:08.755Z,76.08
2023-03-11T06:48:08.977Z,73.79
2023-03-11T06:52:08.750Z,75.68
2023-03-11T06:56:08.722Z,74.94
2023-03-11T07:00:08.746Z,74.97
2023-03-11T07:04:08.757Z,79.20
2023-03-11T07:08:08.653Z,78.22
2023-03-11T07:12:08.652Z,76.99
2023-03-11T07:16:08.766Z,77.64
2023-03-11T07:20:08.628Z,74.14
2023-03-11T07:24:08.630Z,75.60
2023-03-11T07:28:08.626Z,74.02
2023-03-11T07:32:08.597Z,71.06
2023-03-11T07:36:08.612Z,71.05
2023-03-11T07:40:08.555Z,71.86
2023-03-11T07:44:09.935Z,72.60
2023-03-11T07:48:08.561Z,70.88
2023-03-11T07:52:08.525Z,73.07
2023-03-11T07:56:08.491Z,72.68
2023-03-11T08:00:08.507Z,70.91
2023-03-11T08:04:08.554Z,69.78
2023-03-11T08:08:08.542Z,70.46
2023-03-11T08:12:08.583Z,69.60
2023-03-11T08:16:08.623Z,69.82
2023-03-11T08:20:08.595Z,70.65
2023-03-11T08:24:08.585Z,70.43
2023-03-11T08:28:08.532Z,70.31
2023-03-11T08:32:08.555Z,69.29
2023-03-11T08:36:08.662Z,69.08
2023-03-11T08:40:08.701Z,69.41
2023-03-11T08:44:08.819Z,70.78
2023-03-11T08:48:09.020Z,71.41
2023-03-11T08:52:09.158Z,69.85
2023-03-11T08:56:09.137Z,68.91
2023-03-11T09:00:10.234Z,68.68
2023-03-11T09:04:09.088Z,70.04
2023-03-11T09:08:09.052Z,70.02
2023-03-11T09:12:09.001Z,68.68
2023-03-11T09:16:09.048Z,67.99
2023-03-11T09:20:08.934Z,70.30
2023-03-11T09:24:08.863Z,67.55
2023-03-11T09:28:08.852Z,69.41
2023-03-11T09:32:08.836Z,69.47
2023-03-11T09:36:08.774Z,69.72
2023-03-11T09:40:08.756Z,71.87
2023-03-11T09:44:08.716Z,69.38
2023-03-11T09:48:08.760Z,67.59
2023-03-11T09:52:08.976Z,69.79
2023-03-11T09:56:09.212Z,71.63
2023-03-11T10:00:09.435Z,72.65
2023-03-11T10:04:09.609Z,68.86
2023-03-11T10:08:09.797Z,70.16
2023-03-11T10:12:10.055Z,70.36
2023-03-11T10:16:10.271Z,67.68
2023-03-11T10:20:10.398Z,71.33
2023-03-11T10:24:10.601Z,74.39
2023-03-11T10:28:10.772Z,74.02
2023-03-11T10:32:10.966Z,74.34
2023-03-11T10:36:11.141Z,73.06
2023-03-11T10:40:11.624Z,74.08
2023-03-11T10:44:11.561Z,73.38
2023-03-11T10:48:11.738Z,73.12
2023-03-11T10:52:11.889Z,70.35
2023-03-11T10:56:12.058Z,72.25
2023-03-11T11:00:12.192Z,72.33
2023-03-11T11:04:12.420Z,72.25
2023-03-11T11:08:12.496Z,71.78
2023-03-11T11:12:12.671Z,69.26
2023-03-11T11:16:12.842Z,65.40
2023-03-11T11:20:13.071Z,69.26
2023-03-11T11:24:13.204Z,67.58
2023-03-11T11:28:13.352Z,67.37
2023-03-11T11:32:13.668Z,68.37
2023-03-11T11:36:13.758Z,67.41
2023-03-11T11:40:13.908Z,69.45
2023-03-11T11:44:14.087Z,68.87
2023-03-11T11:48:14.273Z,68.56
2023-03-11T11:52:14.419Z,67.67
2023-03-11T11:56:14.554Z,69.08
2023-03-11T12:00:14.708Z,68.14
2023-03-11T12:04:14.898Z,68.62
2023-03-11T12:08:15.020Z,68.03
2023-03-11T12:12:15.199Z,69.85
2023-03-11T12:16:15.468Z,67.77
2023-03-11T12:20:15.512Z,70.92
2023-03-11T12:24:15.593Z,77.52
2023-03-11T12:28:15.680Z,74.74
2023-03-11T12:32:15.859Z,76.32
2023-03-11T12:36:15.888Z,81.33
2023-03-11T12:40:15.994Z,89.70
2023-03-11T12:44:16.045Z,82.71
2023-03-11T12:48:16.107Z,81.54
2023-03-11T12:52:16.133Z,90.17
2023-03-11T12:56:16.192Z,94.21
2023-03-11T13:00:16.203Z,98.14
2023-03-11T13:04:16.193Z,95.44
2023-03-11T13:08:16.191Z,90.11
2023-03-11T13:12:16.171Z,83.22
2023-03-11T13:16:16.235Z,84.96
2023-03-11T13:20:16.247Z,76.52
2023-03-11T13:24:16.422Z,76.56
2023-03-11T13:28:16.612Z,72.25
2023-03-11T13:32:16.644Z,69.58
2023-03-11T13:36:16.533Z,69.95
2023-03-11T13:40:16.577Z,69.71
2023-03-11T13:44:16.475Z,68.21
2023-03-11T13:48:17.234Z,69.92
2023-03-11T13:52:16.402Z,68.27
2023-03-11T13:56:16.372Z,66.68
2023-03-11T14:00:16.335Z,67.05
2023-03-11T14:04:16.394Z,63.82
2023-03-11T14:08:16.308Z,65.19
2023-03-11T14:12:18.719Z,65.88
2023-03-11T14:16:16.251Z,62.28
2023-03-11T14:20:16.232Z,60.44
2023-03-11T14:24:16.111Z,60.45
2023-03-11T14:28:16.120Z,61.23
2023-03-11T14:32:16.130Z,63.43
2023-03-11T14:36:16.145Z,60.14
2023-03-11T14:40:16.006Z,59.27
2023-03-11T14:44:15.980Z,59.40
2023-03-11T14:48:15.909Z,59.48
2023-03-11T14:52:15.885Z,59.30
2023-03-11T14:56:15.879Z,54.38
2023-03-11T15:00:15.812Z,54.57
2023-03-11T15:04:15.888Z,53.90
2023-03-11T15:08:15.795Z,56.46
2023-03-11T15:12:15.704Z,54.83
2023-03-11T15:16:15.796Z,53.44
2023-03-11T15:20:15.852Z,55.71
2023-03-11T15:24:15.914Z,50.26
2023-03-11T15:28:16.007Z,54.15
2023-03-11T15:32:16.137Z,49.40
2023-03-11T15:36:16.185Z,49.80
2023-03-11T15:40:16.220Z,51.82
2023-03-11T15:44:16.398Z,75.42
2023-03-11T15:48:16.499Z,147.72
2023-03-11T15:52:16.636Z,175.24
2023-03-11T15:56:16.748Z,113.86
2023-03-11T16:00:16.868Z,71.16
2023-03-11T16:04:17.185Z,46.87
2023-03-11T16:08:17.217Z,41.68
2023-03-11T16:12:17.353Z,30.98
2023-03-11T16:16:17.482Z,30.33
2023-03-11T16:20:17.507Z,32.01
2023-03-11T16:24:17.713Z,25.02
2023-03-11T16:28:17.710Z,28.57
2023-03-11T16:32:17.703Z,29.91
2023-03-11T16:36:17.611Z,27.82
2023-03-11T16:40:17.618Z,32.30
2023-03-11T16:44:17.548Z,30.82
2023-03-11T16:48:17.531Z,29.28
2023-03-11T16:52:17.504Z,29.95
2023-03-11T16:56:17.442Z,29.73
2023-03-11T17:00:17.395Z,33.09
2023-03-11T17:04:17.378Z,34.17
2023-03-11T17:08:17.382Z,33.38
2023-03-11T17:12:17.311Z,31.06
2023-03-11T17:16:17.351Z,31.63
2023-03-11T17:20:17.261Z,30.66
2023-03-11T17:24:17.237Z,31.13
2023-03-11T17:28:17.206Z,28.09
2023-03-11T17:32:17.669Z,29.00
2023-03-11T17:36:17.133Z,29.03
2023-03-11T17:40:17.096Z,26.42
2023-03-11T17:44:17.031Z,27.94
2023-03-11T17:48:17.006Z,25.25
2023-03-11T17:52:16.987Z,27.61
2023-03-11T17:56:17.079Z,27.40
2023-03-11T18:00:17.103Z,27.24
2023-03-11T18:04:17.202Z,25.53
2023-03-11T18:08:17.288Z,26.83
2023-03-11T18:12:17.365Z,26.02
2023-03-11T18:16:17.513Z,26.58
2023-03-11T18:20:17.585Z,25.55
2023-03-11T18:24:17.702Z,25.89
2023-03-11T18:28:17.822Z,26.90
2023-03-11T18:32:18.094Z,28.48
2023-03-11T18:36:18.138Z,25.20
2023-03-11T18:40:18.271Z,26.52
2023-03-11T18:44:18.473Z,27.55
2023-03-11T18:48:18.617Z,25.21
2023-03-11T18:52:18.827Z,28.92
2023-03-11T18:56:19.047Z,27.11
2023-03-11T19:00:19.271Z,26.65
2023-03-11T19:04:19.487Z,25.97
2023-03-11T19:08:19.676Z,28.25
2023-03-11T19:12:19.900Z,27.33
2023-03-11T19:16:19.911Z,26.46
2023-03-11T19:20:19.820Z,27.05
2023-03-11T19:24:19.802Z,26.67
2023-03-11T19:28:19.770Z,28.17
2023-03-11T19:32:19.747Z,25.00
2023-03-11T19:36:19.716Z,27.34
2023-03-11T19:40:19.648Z,25.39
2023-03-11T19:44:19.611Z,29.85
2023-03-11T19:48:19.583Z,28.74
2023-03-11T19:52:19.636Z,32.50
2023-03-11T19:56:19.601Z,27.05
2023-03-11T20:00:19.575Z,31.15
2023-03-11T20:04:19.610Z,28.76
2023-03-11T20:08:19.502Z,30.16
2023-03-11T20:12:19.452Z,30.35
2023-03-11T20:16:19.568Z,29.29
2023-03-11T20:20:19.390Z,34.33
2023-03-11T20:24:19.426Z,30.66
2023-03-11T20:28:19.327Z,32.53
2023-03-11T20:32:19.427Z,34.48
2023-03-11T20:36:19.492Z,37.76
2023-03-11T20:40:19.559Z,41.45
2023-03-11T20:44:19.617Z,42.60
2023-03-11T20:48:19.527Z,41.61
2023-03-11T20:52:19.523Z,44.50
2023-03-11T20:56:19.441Z,43.84
2023-03-11T21:00:19.385Z,46.03
2023-03-11T21:04:19.445Z,42.84
2023-03-11T21:08:19.414Z,39.15
2023-03-11T21:12:19.303Z,37.40
2023-03-11T21:16:19.470Z,40.12
2023-03-11T21:20:19.206Z,42.99
2023-03-11T21:24:19.257Z,41.83
2023-03-11T21:28:19.266Z,41.02
2023-03-11T21:32:19.635Z,41.02
2023-03-11T21:36:19.740Z,41.38
2023-03-11T21:40:19.792Z,40.89
2023-03-11T21:44:20.071Z,41.82
2023-03-11T21:48:20.178Z,42.59
2023-03-11T21:52:20.329Z,42.39
2023-03-11T21:56:20.689Z,42.78
2023-03-11T22:00:20.759Z,44.45
2023-03-11T22:04:21.146Z,44.60
2023-03-11T22:08:21.110Z,43.79
2023-03-11T22:12:21.200Z,40.09
2023-03-11T22:16:21.306Z,40.01
2023-03-11T22:20:21.123Z,41.79
2023-03-11T22:24:21.139Z,45.60
2023-03-11T22:28:21.110Z,43.16
2023-03-11T22:32:21.190Z,44.59
2023-03-11T22:36:21.152Z,41.96
2023-03-11T22:40:21.184Z,43.92
2023-03-11T22:44:21.161Z,44.07
2023-03-11T22:48:21.177Z,45.30
2023-03-11T22:52:21.266Z,44.49
2023-03-11T22:56:21.269Z,46.22
2023-03-11T23:00:21.249Z,43.36
2023-03-11T23:04:21.324Z,41.35
2023-03-11T23:08:21.208Z,42.03
2023-03-11T23:12:21.194Z,42.08
2023-03-11T23:16:21.316Z,40.79
2023-03-11T23:20:21.140Z,39.22
2023-03-11T23:24:21.134Z,40.89
2023-03-11T23:28:21.135Z,38.73
2023-03-11T23:32:21.105Z,39.75
2023-03-11T23:36:21.083Z,44.88
2023-03-11T23:40:21.091Z,41.05
2023-03-11T23:44:21.068Z,42.07
2023-03-11T23:48:21.117Z,40.36
2023-03-11T23:52:21.109Z,38.29
2023-03-11T23:56:21.066Z,40.13
